createdAt,value
2017-03-06T00:00:18.004Z,0
2017-03-06T00:01:17.975Z,0
2017-03-06T00:02:17.972Z,0
2017-03-06T00:03:17.965Z,0
2017-03-06T00:04:17.967Z,0
2017-03-06T00:05:17.931Z,0
2017-03-06T00:06:17.949Z,0
2017-03-06T00:07:17.921Z,0
2017-03-06T00:08:17.929Z,0
2017-03-06T00:09:17.891Z,0
2017-03-06T00:10:17.881Z,0
2017-03-06T00:11:17.502Z,0
2017-03-06T00:12:17.872Z,0
2017-03-06T00:13:17.861Z,0
2017-03-06T00:14:17.853Z,0
2017-03-06T00:15:17.843Z,0
2017-03-06T00:16:17.447Z,0
2017-03-06T00:17:18.056Z,0
2017-03-06T00:18:17.812Z,0
2017-03-06T00:19:17.825Z,0
2017-03-06T00:20:17.776Z,0
2017-03-06T00:21:17.760Z,0
2017-03-06T00:22:17.750Z,0
2017-03-06T00:23:17.746Z,0
2017-03-06T00:24:17.752Z,0
2017-03-06T00:25:17.733Z,0
2017-03-06T00:26:17.705Z,0
2017-03-06T00:27:17.703Z,0
2017-03-06T00:28:17.688Z,0
2017-03-06T00:29:17.686Z,0
2017-03-06T00:30:17.664Z,0
2017-03-06T00:31:17.683Z,0
2017-03-06T00:32:17.266Z,0
2017-03-06T00:33:17.638Z,0
2017-03-06T00:34:17.643Z,0
2017-03-06T00:35:17.241Z,0
2017-03-06T00:36:17.221Z,0
2017-03-06T00:37:17.206Z,0
2017-03-06T00:38:17.578Z,0
2017-03-06T00:39:17.204Z,0
2017-03-06T00:40:17.169Z,0
2017-03-06T00:41:17.551Z,0
2017-03-06T00:42:17.532Z,0
2017-03-06T00:43:17.128Z,0
2017-03-06T00:44:17.505Z,0
2017-03-06T00:45:17.505Z,0
2017-03-06T00:46:17.482Z,0
2017-03-06T00:47:17.473Z,0
2017-03-06T00:48:17.464Z,0
2017-03-06T00:49:17.450Z,0
2017-03-06T00:50:17.454Z,0
2017-03-06T00:51:17.437Z,0
2017-03-06T00:52:17.414Z,0
2017-03-06T00:53:17.407Z,0
2017-03-06T00:54:17.404Z,0
2017-03-06T00:55:17.381Z,0
2017-03-06T00:56:17.368Z,0
2017-03-06T00:57:17.354Z,0
2017-03-06T00:58:17.349Z,0
2017-03-06T00:59:17.331Z,0
2017-03-06T01:00:17.322Z,0
2017-03-06T01:01:17.306Z,0
2017-03-06T01:02:17.324Z,0
2017-03-06T01:03:17.288Z,0
2017-03-06T01:04:17.272Z,0
2017-03-06T01:05:17.301Z,0
2017-03-06T01:06:17.257Z,0
2017-03-06T01:07:17.267Z,0
2017-03-06T01:08:17.229Z,0
2017-03-06T01:09:17.223Z,0
2017-03-06T01:10:16.813Z,0
2017-03-06T01:11:17.200Z,0
2017-03-06T01:12:17.179Z,0
2017-03-06T01:13:17.200Z,0
2017-03-06T01:14:17.176Z,0
2017-03-06T01:15:17.143Z,0
2017-03-06T01:16:17.132Z,0
2017-03-06T01:17:17.131Z,0
2017-03-06T01:18:17.104Z,0
2017-03-06T01:19:17.106Z,0
2017-03-06T01:20:17.112Z,0
2017-03-06T01:21:17.099Z,0
2017-03-06T01:22:16.699Z,0
2017-03-06T01:23:17.060Z,0
2017-03-06T01:24:17.062Z,0
2017-03-06T01:25:17.020Z,0
2017-03-06T01:26:17.012Z,0
2017-03-06T01:27:16.995Z,0
2017-03-06T01:28:16.989Z,0
2017-03-06T01:29:16.999Z,0
2017-03-06T01:30:17.008Z,0
2017-03-06T01:31:16.966Z,0
2017-03-06T01:32:16.555Z,0
2017-03-06T01:33:16.534Z,0
2017-03-06T01:34:16.910Z,0
2017-03-06T01:35:16.936Z,0
2017-03-06T01:36:16.906Z,0
2017-03-06T01:37:16.890Z,0
2017-03-06T01:38:16.477Z,0
2017-03-06T01:39:16.854Z,0
2017-03-06T01:40:16.857Z,0
2017-03-06T01:41:16.823Z,0
2017-03-06T01:42:16.839Z,0
2017-03-06T01:43:16.808Z,0
2017-03-06T01:44:16.793Z,0
2017-03-06T01:45:16.789Z,0
2017-03-06T01:46:16.775Z,0
2017-03-06T01:47:16.770Z,0
2017-03-06T01:48:16.748Z,0
2017-03-06T01:49:16.730Z,0
2017-03-06T01:50:16.736Z,0
2017-03-06T01:51:16.732Z,0
2017-03-06T01:52:16.711Z,0
2017-03-06T01:53:16.689Z,0
2017-03-06T01:54:16.697Z,0
2017-03-06T01:55:16.686Z,0
2017-03-06T01:56:16.679Z,0
2017-03-06T01:57:16.679Z,0
2017-03-06T01:58:16.630Z,0
2017-03-06T01:59:16.624Z,0
2017-03-06T02:00:16.226Z,0
2017-03-06T02:01:16.591Z,0
2017-03-06T02:02:16.578Z,0
2017-03-06T02:03:16.588Z,0
2017-03-06T02:04:16.556Z,0
2017-03-06T02:05:16.559Z,0
2017-03-06T02:06:16.565Z,0
2017-03-06T02:07:16.543Z,0
2017-03-06T02:08:16.133Z,0
2017-03-06T02:09:16.496Z,0
2017-03-06T02:10:16.503Z,0
2017-03-06T02:11:16.510Z,0
2017-03-06T02:12:16.471Z,0
2017-03-06T02:13:16.072Z,0
2017-03-06T02:14:16.450Z,0
2017-03-06T02:15:16.433Z,0
2017-03-06T02:16:16.425Z,0
2017-03-06T02:17:16.416Z,0
2017-03-06T02:18:16.392Z,0
2017-03-06T02:19:16.418Z,0
2017-03-06T02:20:16.367Z,0
2017-03-06T02:21:16.363Z,0
2017-03-06T02:22:16.348Z,0
2017-03-06T02:23:16.365Z,0
2017-03-06T02:24:16.394Z,0
2017-03-06T02:25:16.339Z,0
2017-03-06T02:26:16.328Z,0
2017-03-06T02:27:16.303Z,0
2017-03-06T02:28:16.285Z,0
2017-03-06T02:29:16.312Z,0
2017-03-06T02:30:16.275Z,0
2017-03-06T02:31:16.244Z,0
2017-03-06T02:32:16.253Z,0
2017-03-06T02:33:16.241Z,0
2017-03-06T02:34:16.210Z,0
2017-03-06T02:35:16.220Z,0
2017-03-06T02:36:16.186Z,0
2017-03-06T02:37:16.179Z,0
2017-03-06T02:38:16.168Z,0
2017-03-06T02:39:16.152Z,0
2017-03-06T02:40:16.146Z,0
2017-03-06T02:41:16.134Z,0
2017-03-06T02:42:16.125Z,0
2017-03-06T02:43:16.132Z,0
2017-03-06T02:44:16.096Z,0
2017-03-06T02:45:16.078Z,0
2017-03-06T02:46:16.071Z,0
2017-03-06T02:47:16.075Z,0
2017-03-06T02:48:16.050Z,0
2017-03-06T02:49:16.058Z,0
2017-03-06T02:50:16.032Z,0
2017-03-06T02:51:16.018Z,0
2017-03-06T02:52:15.619Z,0
2017-03-06T02:53:15.993Z,0
2017-03-06T02:54:15.999Z,0
2017-03-06T02:55:15.966Z,0
2017-03-06T02:56:16.004Z,0
2017-03-06T02:57:15.945Z,0
2017-03-06T02:58:15.944Z,0
2017-03-06T02:59:15.923Z,0
2017-03-06T03:00:15.917Z,0
2017-03-06T03:01:15.902Z,0
2017-03-06T03:02:15.903Z,0
2017-03-06T03:03:15.909Z,0
2017-03-06T03:04:15.884Z,0
2017-03-06T03:05:15.869Z,0
2017-03-06T03:06:15.465Z,0
2017-03-06T03:07:15.846Z,0
2017-03-06T03:08:15.435Z,0
2017-03-06T03:09:15.809Z,0
2017-03-06T03:10:15.793Z,0
2017-03-06T03:11:15.790Z,0
2017-03-06T03:12:15.782Z,0
2017-03-06T03:13:15.774Z,0
2017-03-06T03:14:15.764Z,0
2017-03-06T03:15:15.737Z,0
2017-03-06T03:16:15.725Z,0
2017-03-06T03:17:15.724Z,0
2017-03-06T03:18:15.730Z,0
2017-03-06T03:19:15.706Z,0
2017-03-06T03:20:15.676Z,0
2017-03-06T03:21:15.668Z,0
2017-03-06T03:22:15.677Z,0
2017-03-06T03:23:15.670Z,0
2017-03-06T03:24:15.636Z,0
2017-03-06T03:25:15.620Z,0
2017-03-06T03:26:15.612Z,0
2017-03-06T03:27:15.597Z,0
2017-03-06T03:28:15.594Z,0
2017-03-06T03:29:15.587Z,0
2017-03-06T03:30:15.568Z,0
2017-03-06T03:31:15.589Z,0
2017-03-06T03:32:15.567Z,0
2017-03-06T03:33:15.540Z,0
2017-03-06T03:34:15.548Z,0
2017-03-06T03:35:15.119Z,0
2017-03-06T03:36:15.500Z,0
2017-03-06T03:37:15.481Z,0
2017-03-06T03:38:15.472Z,0
2017-03-06T03:39:15.461Z,0
2017-03-06T03:40:15.475Z,0
2017-03-06T03:41:15.473Z,0
2017-03-06T03:42:15.425Z,0
2017-03-06T03:43:15.430Z,0
2017-03-06T03:44:15.402Z,0
2017-03-06T03:45:15.395Z,0
2017-03-06T03:46:15.379Z,0
2017-03-06T03:47:15.370Z,0
2017-03-06T03:48:14.990Z,0
2017-03-06T03:49:15.343Z,0
2017-03-06T03:50:15.335Z,0
2017-03-06T03:51:15.327Z,0
2017-03-06T03:52:15.310Z,0
2017-03-06T03:53:15.315Z,0
2017-03-06T03:54:15.300Z,0
2017-03-06T03:55:15.312Z,0
2017-03-06T03:56:15.266Z,0
2017-03-06T03:57:15.259Z,0
2017-03-06T03:58:15.241Z,0
2017-03-06T03:59:15.255Z,0
2017-03-06T04:00:15.220Z,0
2017-03-06T04:01:15.223Z,0
2017-03-06T04:02:14.809Z,0
2017-03-06T04:03:15.239Z,0
2017-03-06T04:04:15.208Z,0
2017-03-06T04:05:15.161Z,0
2017-03-06T04:06:15.152Z,0
2017-03-06T04:07:15.149Z,0
2017-03-06T04:08:15.137Z,0
2017-03-06T04:09:15.117Z,0
2017-03-06T04:10:15.100Z,0
2017-03-06T04:11:15.092Z,0
2017-03-06T04:12:15.080Z,0
2017-03-06T04:13:15.095Z,0
2017-03-06T04:14:15.058Z,0
2017-03-06T04:15:15.059Z,0
2017-03-06T04:16:15.043Z,0
2017-03-06T04:17:15.020Z,0
2017-03-06T04:18:15.034Z,0
2017-03-06T04:19:15.011Z,0
2017-03-06T04:20:14.607Z,0
2017-03-06T04:21:14.973Z,0
2017-03-06T04:22:14.958Z,0
2017-03-06T04:23:14.944Z,0
2017-03-06T04:24:14.941Z,0
2017-03-06T04:25:14.945Z,0
2017-03-06T04:26:14.916Z,0
2017-03-06T04:27:14.898Z,0
2017-03-06T04:28:14.887Z,0
2017-03-06T04:29:14.881Z,0
2017-03-06T04:30:14.895Z,0
2017-03-06T04:31:14.855Z,0
2017-03-06T04:32:14.836Z,0
2017-03-06T04:33:14.823Z,0
2017-03-06T04:34:14.816Z,0
2017-03-06T04:35:14.803Z,0
2017-03-06T04:36:14.787Z,0
2017-03-06T04:37:14.791Z,0
2017-03-06T04:38:14.759Z,0
2017-03-06T04:39:14.768Z,0
2017-03-06T04:40:14.736Z,0
2017-03-06T04:41:14.723Z,0
2017-03-06T04:42:14.723Z,0
2017-03-06T04:43:14.704Z,0
2017-03-06T04:44:14.299Z,0
2017-03-06T04:45:14.684Z,0
2017-03-06T04:46:14.660Z,0
2017-03-06T04:47:14.647Z,0
2017-03-06T04:48:14.637Z,0
2017-03-06T04:49:14.625Z,0
2017-03-06T04:50:14.233Z,0
2017-03-06T04:51:14.607Z,0
2017-03-06T04:52:14.596Z,0
2017-03-06T04:53:14.596Z,0
2017-03-06T04:54:14.555Z,0
2017-03-06T04:55:14.545Z,0
2017-03-06T04:56:14.530Z,0
2017-03-06T04:57:14.527Z,0
2017-03-06T04:58:14.130Z,0
2017-03-06T04:59:14.491Z,0
2017-03-06T05:00:14.484Z,0
2017-03-06T05:01:14.499Z,0
2017-03-06T05:02:14.452Z,0
2017-03-06T05:03:14.445Z,0
2017-03-06T05:04:14.429Z,0
2017-03-06T05:05:14.041Z,0
2017-03-06T05:06:14.407Z,4
2017-03-06T05:07:14.423Z,4
2017-03-06T05:08:14.383Z,0
2017-03-06T05:09:14.404Z,4
2017-03-06T05:10:14.372Z,4
2017-03-06T05:11:14.340Z,4
2017-03-06T05:12:14.329Z,4
2017-03-06T05:13:14.317Z,4
2017-03-06T05:14:13.956Z,8
2017-03-06T05:15:14.316Z,8
2017-03-06T05:16:14.275Z,8
2017-03-06T05:17:14.269Z,12
2017-03-06T05:18:14.275Z,16
2017-03-06T05:19:14.235Z,16
2017-03-06T05:20:13.855Z,16
2017-03-06T05:21:14.225Z,20
2017-03-06T05:22:14.206Z,24
2017-03-06T05:23:14.189Z,28
2017-03-06T05:24:14.175Z,32
2017-03-06T05:25:14.167Z,40
2017-03-06T05:26:14.144Z,44
2017-03-06T05:27:14.138Z,48
2017-03-06T05:28:14.147Z,56
2017-03-06T05:29:14.126Z,64
2017-03-06T05:30:14.104Z,72
2017-03-06T05:31:14.087Z,80
2017-03-06T05:32:14.071Z,88
2017-03-06T05:33:14.077Z,100
2017-03-06T05:34:13.657Z,112
2017-03-06T05:35:13.650Z,124
2017-03-06T05:36:13.635Z,140
2017-03-06T05:37:14.019Z,156
2017-03-06T05:38:14.001Z,168
2017-03-06T05:39:13.980Z,184
2017-03-06T05:40:13.975Z,200
2017-03-06T05:41:13.970Z,216
2017-03-06T05:42:13.954Z,236
2017-03-06T05:43:13.931Z,252
2017-03-06T05:44:13.932Z,272
2017-03-06T05:45:13.908Z,292
2017-03-06T05:46:13.508Z,312
2017-03-06T05:47:13.909Z,332
2017-03-06T05:48:14.147Z,356
2017-03-06T05:49:13.856Z,376
2017-03-06T05:50:13.851Z,396
2017-03-06T05:51:13.834Z,416
2017-03-06T05:52:13.831Z,432
2017-03-06T05:53:13.812Z,452
2017-03-06T05:54:13.431Z,468
2017-03-06T05:55:13.783Z,488
2017-03-06T05:56:13.794Z,508
2017-03-06T05:57:13.793Z,528
2017-03-06T05:58:13.758Z,556
2017-03-06T05:59:13.735Z,584
2017-03-06T06:00:13.334Z,612
2017-03-06T06:01:13.714Z,644
2017-03-06T06:02:13.335Z,684
2017-03-06T06:03:13.704Z,720
2017-03-06T06:04:13.696Z,760
2017-03-06T06:05:13.690Z,792
2017-03-06T06:06:13.650Z,832
2017-03-06T06:07:13.664Z,876
2017-03-06T06:08:13.887Z,924
2017-03-06T06:09:13.239Z,972
2017-03-06T06:10:13.215Z,1020
2017-03-06T06:11:13.592Z,1076
2017-03-06T06:12:13.594Z,1128
2017-03-06T06:13:13.581Z,1184
2017-03-06T06:14:13.550Z,1236
2017-03-06T06:15:13.549Z,1292
2017-03-06T06:16:13.527Z,1352
2017-03-06T06:17:13.532Z,1408
2017-03-06T06:18:13.513Z,1460
2017-03-06T06:19:13.525Z,1512
2017-03-06T06:20:13.114Z,1560
2017-03-06T06:21:13.478Z,1600
2017-03-06T06:22:13.090Z,1640
2017-03-06T06:23:13.463Z,1688
2017-03-06T06:24:13.450Z,1748
2017-03-06T06:25:13.424Z,1816
2017-03-06T06:26:13.420Z,1880
2017-03-06T06:27:13.414Z,1960
2017-03-06T06:28:13.410Z,2036
2017-03-06T06:29:13.384Z,2124
2017-03-06T06:30:13.380Z,2212
2017-03-06T06:31:13.396Z,2304
2017-03-06T06:32:12.958Z,2400
2017-03-06T06:33:13.337Z,2504
2017-03-06T06:34:12.947Z,2600
2017-03-06T06:35:13.330Z,2692
2017-03-06T06:36:13.320Z,2772
2017-03-06T06:37:13.292Z,2844
2017-03-06T06:38:13.285Z,2896
2017-03-06T06:39:13.281Z,2936
2017-03-06T06:40:13.283Z,2976
2017-03-06T06:41:13.273Z,3032
2017-03-06T06:42:13.290Z,3088
2017-03-06T06:43:13.241Z,3144
2017-03-06T06:44:13.217Z,3200
2017-03-06T06:45:13.241Z,3252
2017-03-06T06:46:13.193Z,3296
2017-03-06T06:47:13.237Z,3332
2017-03-06T06:48:13.193Z,3376
2017-03-06T06:49:13.160Z,3420
2017-03-06T06:50:12.768Z,3472
2017-03-06T06:51:13.157Z,3520
2017-03-06T06:52:13.130Z,3564
2017-03-06T06:53:13.115Z,3600
2017-03-06T06:54:13.108Z,3636
2017-03-06T06:55:13.096Z,3680
2017-03-06T06:56:13.095Z,3736
2017-03-06T06:57:13.082Z,3800
2017-03-06T06:58:13.061Z,3876
2017-03-06T06:59:13.079Z,3984
2017-03-06T07:00:13.042Z,4112
2017-03-06T07:01:13.057Z,4252
2017-03-06T07:02:13.021Z,4412
2017-03-06T07:03:13.033Z,4580
2017-03-06T07:04:13.011Z,4756
2017-03-06T07:05:13.022Z,4880
2017-03-06T07:06:13.006Z,5032
2017-03-06T07:07:12.980Z,5196
2017-03-06T07:08:12.617Z,5380
2017-03-06T07:09:12.972Z,5616
2017-03-06T07:10:12.942Z,5892
2017-03-06T07:11:12.973Z,6136
2017-03-06T07:12:12.923Z,6508
2017-03-06T07:13:12.908Z,6968
2017-03-06T07:14:12.926Z,7284
2017-03-06T07:15:12.890Z,7660
2017-03-06T07:16:12.894Z,8068
2017-03-06T07:17:12.899Z,8464
2017-03-06T07:18:12.481Z,8884
2017-03-06T07:19:12.853Z,9440
2017-03-06T07:20:12.847Z,9996
2017-03-06T07:21:12.851Z,10632
2017-03-06T07:22:12.835Z,11144
2017-03-06T07:23:12.843Z,11496
2017-03-06T07:24:12.421Z,12240
2017-03-06T07:25:12.795Z,12768
2017-03-06T07:26:12.803Z,13164
2017-03-06T07:27:12.810Z,13600
2017-03-06T07:28:12.772Z,14088
2017-03-06T07:29:12.781Z,14528
2017-03-06T07:30:12.755Z,14688
2017-03-06T07:31:12.773Z,15136
2017-03-06T07:32:12.774Z,15680
2017-03-06T07:33:12.763Z,15552
2017-03-06T07:34:11.952Z,15840
2017-03-06T07:35:12.716Z,16256
2017-03-06T07:36:12.713Z,16480
2017-03-06T07:37:12.738Z,17024
2017-03-06T07:38:12.313Z,17216
2017-03-06T07:39:12.688Z,17600
2017-03-06T07:40:12.684Z,17888
2017-03-06T07:41:12.716Z,18208
2017-03-06T07:42:12.282Z,18240
2017-03-06T07:43:12.668Z,18272
2017-03-06T07:44:12.653Z,18400
2017-03-06T07:45:12.663Z,18400
2017-03-06T07:46:12.649Z,18464
2017-03-06T07:47:12.649Z,18752
2017-03-06T07:48:12.635Z,18880
2017-03-06T07:49:12.640Z,19008
2017-03-06T07:50:12.238Z,18912
2017-03-06T07:51:12.654Z,18400
2017-03-06T07:52:12.645Z,18208
2017-03-06T07:53:12.607Z,16960
2017-03-06T07:54:12.606Z,17184
2017-03-06T07:55:12.602Z,14560
2017-03-06T07:56:11.828Z,13796
2017-03-06T07:57:12.599Z,13408
2017-03-06T07:58:12.587Z,13000
2017-03-06T07:59:12.604Z,12536
2017-03-06T08:00:12.194Z,12060
2017-03-06T08:01:12.573Z,11612
2017-03-06T08:02:12.575Z,11256
2017-03-06T08:03:12.561Z,10952
2017-03-06T08:04:12.560Z,10712
2017-03-06T08:05:12.565Z,10516
2017-03-06T08:06:12.553Z,10368
2017-03-06T08:07:12.560Z,10272
2017-03-06T08:08:12.546Z,10188
2017-03-06T08:09:12.569Z,10108
2017-03-06T08:10:12.534Z,10028
2017-03-06T08:11:12.541Z,9956
2017-03-06T08:12:12.143Z,9876
2017-03-06T08:13:12.518Z,9844
2017-03-06T08:14:12.148Z,9928
2017-03-06T08:15:11.766Z,10124
2017-03-06T08:16:12.526Z,10404
2017-03-06T08:17:12.504Z,10784
2017-03-06T08:18:12.110Z,11176
2017-03-06T08:19:12.489Z,11464
2017-03-06T08:20:12.096Z,11600
2017-03-06T08:21:12.482Z,11588
2017-03-06T08:22:11.703Z,11564
2017-03-06T08:23:12.467Z,11504
2017-03-06T08:24:12.474Z,11452
2017-03-06T08:25:12.466Z,11368
2017-03-06T08:26:12.447Z,11296
2017-03-06T08:27:12.447Z,11244
2017-03-06T08:28:12.438Z,11172
2017-03-06T08:29:12.466Z,11052
2017-03-06T08:30:12.058Z,10948
2017-03-06T08:31:12.426Z,10900
2017-03-06T08:32:12.034Z,10952
2017-03-06T08:33:12.418Z,11016
2017-03-06T08:34:12.404Z,11144
2017-03-06T08:35:12.410Z,11232
2017-03-06T08:36:12.396Z,11376
2017-03-06T08:37:12.437Z,11584
2017-03-06T08:38:12.387Z,11968
2017-03-06T08:39:12.380Z,12372
2017-03-06T08:40:11.996Z,12660
2017-03-06T08:41:12.006Z,12860
2017-03-06T08:42:12.369Z,13000
2017-03-06T08:43:12.356Z,12852
2017-03-06T08:44:12.349Z,12408
2017-03-06T08:45:12.362Z,11964
2017-03-06T08:46:12.369Z,11532
2017-03-06T08:47:12.346Z,10928
2017-03-06T08:48:11.952Z,10444
2017-03-06T08:49:12.323Z,10220
2017-03-06T08:50:12.344Z,10068
2017-03-06T08:51:12.317Z,9780
2017-03-06T08:52:12.319Z,9584
2017-03-06T08:53:12.301Z,9500
2017-03-06T08:54:11.907Z,9500
2017-03-06T08:55:12.311Z,9540
2017-03-06T08:56:11.899Z,9636
2017-03-06T08:57:12.283Z,9800
2017-03-06T08:58:11.891Z,9880
2017-03-06T08:59:12.289Z,9808
2017-03-06T09:00:12.266Z,9608
2017-03-06T09:01:12.275Z,9268
2017-03-06T09:02:12.259Z,8884
2017-03-06T09:03:12.252Z,8624
2017-03-06T09:04:12.241Z,8452
2017-03-06T09:05:12.234Z,8304
2017-03-06T09:06:12.240Z,8112
2017-03-06T09:07:12.264Z,7856
2017-03-06T09:08:11.855Z,7476
2017-03-06T09:09:12.224Z,7092
2017-03-06T09:10:12.219Z,6780
2017-03-06T09:11:12.204Z,6556
2017-03-06T09:12:12.209Z,6452
2017-03-06T09:13:11.802Z,6476
2017-03-06T09:14:12.185Z,6596
2017-03-06T09:15:12.179Z,6696
2017-03-06T09:16:12.176Z,6748
2017-03-06T09:17:12.166Z,6780
2017-03-06T09:18:12.167Z,6872
2017-03-06T09:19:12.153Z,7076
2017-03-06T09:20:12.182Z,7360
2017-03-06T09:21:12.140Z,7644
2017-03-06T09:22:12.149Z,7916
2017-03-06T09:23:12.154Z,8040
2017-03-06T09:24:12.127Z,7956
2017-03-06T09:25:12.118Z,7760
2017-03-06T09:26:12.142Z,7552
2017-03-06T09:27:12.116Z,7380
2017-03-06T09:28:12.109Z,7288
2017-03-06T09:29:12.096Z,7220
2017-03-06T09:30:12.097Z,7080
2017-03-06T09:31:12.114Z,6872
2017-03-06T09:32:11.689Z,6628
2017-03-06T09:33:12.082Z,6500
2017-03-06T09:34:11.677Z,6552
2017-03-06T09:35:12.056Z,6756
2017-03-06T09:36:12.059Z,7000
2017-03-06T09:37:12.050Z,7128
2017-03-06T09:38:12.051Z,7092
2017-03-06T09:39:12.063Z,6936
2017-03-06T09:40:12.049Z,6716
2017-03-06T09:41:12.027Z,6440
2017-03-06T09:42:12.046Z,6200
2017-03-06T09:43:12.013Z,6044
2017-03-06T09:44:12.012Z,6036
2017-03-06T09:45:11.999Z,6096
2017-03-06T09:46:11.626Z,6244
2017-03-06T09:47:11.999Z,6436
2017-03-06T09:48:11.995Z,6636
2017-03-06T09:49:11.973Z,6756
2017-03-06T09:50:12.258Z,6884
2017-03-06T09:51:11.987Z,6984
2017-03-06T09:52:11.963Z,6928
2017-03-06T09:53:11.974Z,6860
2017-03-06T09:54:11.945Z,6724
2017-03-06T09:55:11.937Z,6604
2017-03-06T09:56:11.547Z,6592
2017-03-06T09:57:11.944Z,6616
2017-03-06T09:58:11.943Z,6664
2017-03-06T09:59:11.927Z,6676
2017-03-06T10:00:11.923Z,6620
2017-03-06T10:01:11.533Z,6540
2017-03-06T10:02:11.516Z,6528
2017-03-06T10:03:11.876Z,6576
2017-03-06T10:04:11.495Z,6568
2017-03-06T10:05:11.892Z,6472
2017-03-06T10:06:11.885Z,6312
2017-03-06T10:07:11.861Z,6152
2017-03-06T10:08:11.850Z,6148
2017-03-06T10:09:11.858Z,6216
2017-03-06T10:10:11.842Z,6300
2017-03-06T10:11:11.878Z,6412
2017-03-06T10:12:11.843Z,6680
2017-03-06T10:13:11.822Z,7008
2017-03-06T10:14:11.423Z,7176
2017-03-06T10:15:11.838Z,7288
2017-03-06T10:16:11.863Z,7344
2017-03-06T10:17:11.792Z,7468
2017-03-06T10:18:11.805Z,7676
2017-03-06T10:19:11.803Z,7940
2017-03-06T10:20:11.455Z,8332
2017-03-06T10:21:11.762Z,8684
2017-03-06T10:22:11.761Z,8972
2017-03-06T10:23:11.757Z,9256
2017-03-06T10:24:11.791Z,9536
2017-03-06T10:25:11.767Z,9880
2017-03-06T10:26:11.734Z,10320
2017-03-06T10:27:11.733Z,10792
2017-03-06T10:28:11.721Z,11304
2017-03-06T10:29:12.006Z,11768
2017-03-06T10:30:11.747Z,12304
2017-03-06T10:31:11.711Z,12956
2017-03-06T10:32:11.730Z,13684
2017-03-06T10:33:11.695Z,14240
2017-03-06T10:34:11.692Z,14404
2017-03-06T10:35:11.676Z,14120
2017-03-06T10:36:11.293Z,13748
2017-03-06T10:37:11.672Z,13436
2017-03-06T10:38:11.674Z,13220
2017-03-06T10:39:11.663Z,13052
2017-03-06T10:40:11.647Z,12812
2017-03-06T10:41:11.260Z,12404
2017-03-06T10:42:11.641Z,11724
2017-03-06T10:43:11.636Z,11044
2017-03-06T10:44:11.628Z,10264
2017-03-06T10:45:11.632Z,9604
2017-03-06T10:46:11.615Z,9200
2017-03-06T10:47:11.610Z,8960
2017-03-06T10:48:11.602Z,8872
2017-03-06T10:49:11.612Z,8932
2017-03-06T10:50:11.592Z,8900
2017-03-06T10:51:11.585Z,8752
2017-03-06T10:52:11.578Z,8688
2017-03-06T10:53:11.571Z,8804
2017-03-06T10:54:11.192Z,9188
2017-03-06T10:55:11.574Z,9948
2017-03-06T10:56:11.599Z,10932
2017-03-06T10:57:11.572Z,11988
2017-03-06T10:58:11.551Z,13204
2017-03-06T10:59:11.546Z,14616
2017-03-06T11:00:10.768Z,16256
2017-03-06T11:01:11.562Z,17760
2017-03-06T11:02:11.552Z,18624
2017-03-06T11:03:11.556Z,18816
2017-03-06T11:04:11.514Z,18208
2017-03-06T11:05:11.515Z,17408
2017-03-06T11:06:11.137Z,16800
2017-03-06T11:07:11.496Z,16480
2017-03-06T11:08:11.140Z,16224
2017-03-06T11:09:11.514Z,16024
2017-03-06T11:10:10.745Z,16128
2017-03-06T11:11:11.105Z,16160
2017-03-06T11:12:11.104Z,16192
2017-03-06T11:13:11.086Z,16256
2017-03-06T11:14:11.469Z,16352
2017-03-06T11:15:11.461Z,16704
2017-03-06T11:16:11.459Z,17440
2017-03-06T11:17:11.086Z,18080
2017-03-06T11:18:10.714Z,18912
2017-03-06T11:19:11.777Z,19360
2017-03-06T11:20:11.075Z,19168
2017-03-06T11:21:11.460Z,18848
2017-03-06T11:22:11.446Z,18400
2017-03-06T11:23:11.443Z,17856
2017-03-06T11:24:11.752Z,17152
2017-03-06T11:25:11.454Z,16544
2017-03-06T11:26:11.033Z,15820
2017-03-06T11:27:11.418Z,15276
2017-03-06T11:28:11.412Z,14836
2017-03-06T11:29:11.409Z,14592
2017-03-06T11:30:11.021Z,14624
2017-03-06T11:31:11.048Z,14696
2017-03-06T11:32:11.400Z,14608
2017-03-06T11:33:11.016Z,14400
2017-03-06T11:34:11.405Z,14168
2017-03-06T11:35:11.395Z,13984
2017-03-06T11:36:11.005Z,13872
2017-03-06T11:37:11.419Z,13640
2017-03-06T11:38:11.420Z,13212
2017-03-06T11:39:11.376Z,12992
2017-03-06T11:40:10.993Z,13104
2017-03-06T11:41:10.997Z,13620
2017-03-06T11:42:11.385Z,14396
2017-03-06T11:43:11.368Z,15228
2017-03-06T11:44:11.367Z,15792
2017-03-06T11:45:11.368Z,16384
2017-03-06T11:46:10.966Z,16832
2017-03-06T11:47:11.352Z,17248
2017-03-06T11:48:11.347Z,17216
2017-03-06T11:49:11.355Z,17408
2017-03-06T11:50:10.963Z,17888
2017-03-06T11:51:10.948Z,18176
2017-03-06T11:52:11.334Z,17920
2017-03-06T11:53:11.368Z,17376
2017-03-06T11:54:10.941Z,16896
2017-03-06T11:55:11.363Z,15960
2017-03-06T11:56:10.948Z,15208
2017-03-06T11:57:11.331Z,14312
2017-03-06T11:58:11.345Z,13148
2017-03-06T11:59:11.324Z,11748
2017-03-06T12:00:11.311Z,10636
2017-03-06T12:01:10.918Z,9968
2017-03-06T12:02:11.334Z,9620
2017-03-06T12:03:11.303Z,9692
2017-03-06T12:04:10.925Z,10032
2017-03-06T12:05:11.297Z,10492
2017-03-06T12:06:11.324Z,10804
2017-03-06T12:07:11.289Z,10764
2017-03-06T12:08:11.316Z,10600
2017-03-06T12:09:10.913Z,10476
2017-03-06T12:10:11.274Z,10496
2017-03-06T12:11:11.271Z,10652
2017-03-06T12:12:11.315Z,10868
2017-03-06T12:13:10.877Z,11048
2017-03-06T12:14:10.894Z,11236
2017-03-06T12:15:11.281Z,11364
2017-03-06T12:16:11.249Z,11412
2017-03-06T12:17:11.256Z,11456
2017-03-06T12:18:11.242Z,11416
2017-03-06T12:19:11.282Z,11320
2017-03-06T12:20:10.858Z,11204
2017-03-06T12:21:11.259Z,11096
2017-03-06T12:22:11.225Z,11144
2017-03-06T12:23:11.220Z,11320
2017-03-06T12:24:11.237Z,11436
2017-03-06T12:25:11.246Z,11636
2017-03-06T12:26:11.241Z,12076
2017-03-06T12:27:10.847Z,12540
2017-03-06T12:28:11.246Z,12688
2017-03-06T12:29:11.213Z,12448
2017-03-06T12:30:11.231Z,11900
2017-03-06T12:31:11.195Z,11236
2017-03-06T12:32:11.201Z,10800
2017-03-06T12:33:11.212Z,10696
2017-03-06T12:34:11.219Z,10940
2017-03-06T12:35:10.806Z,11284
2017-03-06T12:36:10.812Z,11612
2017-03-06T12:37:11.195Z,11820
2017-03-06T12:38:11.164Z,12004
2017-03-06T12:39:11.159Z,12064
2017-03-06T12:40:10.794Z,11860
2017-03-06T12:41:11.172Z,11380
2017-03-06T12:42:11.156Z,10808
2017-03-06T12:43:11.151Z,10372
2017-03-06T12:44:11.140Z,10104
2017-03-06T12:45:11.153Z,9872
2017-03-06T12:46:10.746Z,9468
2017-03-06T12:47:11.131Z,8948
2017-03-06T12:48:11.126Z,8424
2017-03-06T12:49:11.135Z,8004
2017-03-06T12:50:11.137Z,7716
2017-03-06T12:51:11.116Z,7564
2017-03-06T12:52:11.107Z,7564
2017-03-06T12:53:11.108Z,7732
2017-03-06T12:54:11.301Z,8004
2017-03-06T12:55:11.096Z,8272
2017-03-06T12:56:11.099Z,8412
2017-03-06T12:57:11.118Z,8424
2017-03-06T12:58:11.104Z,8324
2017-03-06T12:59:11.078Z,8176
2017-03-06T13:00:10.685Z,7984
2017-03-06T13:01:11.095Z,7704
2017-03-06T13:02:10.679Z,7304
2017-03-06T13:03:11.069Z,6876
2017-03-06T13:04:11.060Z,6508
2017-03-06T13:05:10.278Z,6260
2017-03-06T13:06:11.064Z,6120
2017-03-06T13:07:11.050Z,6032
2017-03-06T13:08:11.035Z,5968
2017-03-06T13:09:11.030Z,5760
2017-03-06T13:10:11.025Z,5320
2017-03-06T13:11:11.023Z,4780
2017-03-06T13:12:11.013Z,4344
2017-03-06T13:13:11.028Z,4112
2017-03-06T13:14:11.020Z,4028
2017-03-06T13:15:11.021Z,3940
2017-03-06T13:16:10.609Z,3988
2017-03-06T13:17:10.993Z,4060
2017-03-06T13:18:10.989Z,4180
2017-03-06T13:19:10.982Z,4300
2017-03-06T13:20:11.002Z,4244
2017-03-06T13:21:10.998Z,4088
2017-03-06T13:22:10.956Z,3900
2017-03-06T13:23:10.954Z,3772
2017-03-06T13:24:10.952Z,3788
2017-03-06T13:25:10.959Z,3996
2017-03-06T13:26:10.939Z,4348
2017-03-06T13:27:10.974Z,4692
2017-03-06T13:28:10.926Z,4912
2017-03-06T13:29:10.916Z,5008
2017-03-06T13:30:10.936Z,5012
2017-03-06T13:31:10.156Z,4988
2017-03-06T13:32:10.522Z,5012
2017-03-06T13:33:10.528Z,5124
2017-03-06T13:34:10.890Z,5260
2017-03-06T13:35:10.895Z,5420
2017-03-06T13:36:10.884Z,5560
2017-03-06T13:37:10.891Z,5676
2017-03-06T13:38:10.860Z,5776
2017-03-06T13:39:10.855Z,5992
2017-03-06T13:40:10.853Z,6412
2017-03-06T13:41:10.851Z,7024
2017-03-06T13:42:10.858Z,7548
2017-03-06T13:43:10.828Z,7856
2017-03-06T13:44:10.825Z,7936
2017-03-06T13:45:10.810Z,7940